Time;durP1;ratioP1;P1;durP2;ratioP2;P2;SDS_P1;SDS_P2;PMS_P1;PMS_P2;Temp;Humidity;BMP_temperature;BMP_pressure;BME280_temperature;BME280_humidity;BME280_pressure;Samples;Min_cycle;Max_cycle;Signal;HPM_P1;HPM_P2
2022/04/04 00:00:55;;;;;;;6.30;2.25;;;3.40;99.90;;;;;;5023082;28;20546;-72
2022/04/04 00:03:21;;;;;;;4.43;2.70;;;3.40;99.90;;;;;;5022176;28;20041;-72
2022/04/04 00:05:48;;;;;;;4.40;3.15;;;3.40;99.90;;;;;;5021669;28;20518;-72
2022/04/04 00:08:14;;;;;;;7.28;2.50;;;3.30;99.90;;;;;;5024509;28;20146;-72
2022/04/04 00:10:39;;;;;;;4.35;2.70;;;3.30;99.90;;;;;;5023933;28;20053;-71
2022/04/04 00:13:05;;;;;;;7.35;3.58;;;3.30;99.90;;;;;;5021922;28;20041;-72
2022/04/04 00:15:31;;;;;;;5.18;2.65;;;3.30;99.90;;;;;;5021177;28;20045;-72
2022/04/04 00:17:56;;;;;;;3.72;2.38;;;3.30;99.90;;;;;;5018016;28;20046;-72
2022/04/04 00:20:23;;;;;;;4.25;2.83;;;3.30;99.90;;;;;;5020969;28;20750;-72
2022/04/04 00:22:48;;;;;;;6.57;2.42;;;3.30;99.90;;;;;;5022991;28;20888;-72
2022/04/04 00:25:14;;;;;;;5.25;2.70;;;3.30;99.90;;;;;;5021276;28;20124;-71
2022/04/04 00:27:40;;;;;;;5.85;2.53;;;3.30;99.90;;;;;;5020561;28;20049;-72
2022/04/04 00:30:06;;;;;;;5.00;3.65;;;3.20;99.90;;;;;;5019281;28;20091;-72
2022/04/04 00:32:32;;;;;;;7.20;2.88;;;3.20;99.90;;;;;;5021155;28;20045;-72
2022/04/04 00:35:00;;;;;;;4.15;2.25;;;3.30;99.90;;;;;;5023150;28;20046;-72
2022/04/04 00:37:26;;;;;;;5.00;2.58;;;3.30;99.90;;;;;;5023169;28;20045;-72
2022/04/04 00:39:52;;;;;;;7.97;2.75;;;3.30;99.90;;;;;;5023116;28;20141;-72
2022/04/04 00:42:18;;;;;;;6.90;2.47;;;3.30;99.90;;;;;;5020375;28;20037;-72
2022/04/04 00:44:45;;;;;;;4.65;2.30;;;3.20;99.90;;;;;;5019137;28;20037;-72
2022/04/04 00:47:11;;;;;;;7.00;2.60;;;3.30;99.90;;;;;;5022659;28;20041;-72
2022/04/04 00:49:37;;;;;;;6.22;2.60;;;3.40;99.90;;;;;;5021835;28;20044;-72
2022/04/04 00:52:03;;;;;;;5.63;2.72;;;3.40;99.90;;;;;;5020623;28;20396;-72
2022/04/04 00:54:29;;;;;;;5.20;2.97;;;3.30;99.90;;;;;;5020830;28;20681;-72
2022/04/04 00:56:56;;;;;;;6.78;3.00;;;3.40;99.90;;;;;;5004239;28;20045;-70
2022/04/04 00:59:23;;;;;;;5.75;2.40;;;3.40;99.90;;;;;;5022069;28;20639;-70
2022/04/04 01:01:49;;;;;;;3.42;2.85;;;3.50;99.90;;;;;;5021849;28;20041;-70
2022/04/04 01:04:16;;;;;;;6.97;2.65;;;3.60;99.90;;;;;;5019869;28;20084;-70
2022/04/04 01:06:43;;;;;;;10.90;3.20;;;3.60;99.90;;;;;;5021671;28;20052;-70
2022/04/04 01:09:14;;;;;;;4.90;3.42;;;3.60;99.90;;;;;;5021359;28;20113;-70
2022/04/04 01:12:10;;;;;;;6.03;3.13;;;3.70;99.90;;;;;;5017169;28;20064;-69
2022/04/04 01:14:41;;;;;;;16.27;5.55;;;3.70;99.90;;;;;;5020133;28;20077;-70
2022/04/04 01:17:08;;;;;;;7.72;4.40;;;3.70;99.90;;;;;;5021566;28;20050;-70
2022/04/04 01:19:34;;;;;;;7.97;4.40;;;3.70;99.90;;;;;;5020732;28;20124;-70
2022/04/04 01:22:00;;;;;;;6.72;4.68;;;3.80;99.90;;;;;;5019964;28;20492;-69
2022/04/04 01:24:27;;;;;;;11.48;5.57;;;3.80;99.90;;;;;;5019514;28;20033;-69
2022/04/04 01:26:53;;;;;;;7.95;5.50;;;3.90;99.90;;;;;;5017893;28;20083;-68
2022/04/04 01:29:20;;;;;;;11.60;6.88;;;4.00;99.90;;;;;;5020041;28;20136;-70
2022/04/04 01:31:47;;;;;;;9.25;7.07;;;4.00;99.90;;;;;;5020724;28;20115;-70
2022/04/04 01:34:13;;;;;;;11.90;7.30;;;4.00;99.90;;;;;;5020803;28;20054;-69
2022/04/04 01:36:39;;;;;;;12.48;7.20;;;4.10;99.90;;;;;;5020955;28;20049;-70
2022/04/04 01:39:04;;;;;;;11.88;7.93;;;4.10;99.90;;;;;;5020364;28;20048;-70
2022/04/04 01:41:30;;;;;;;8.77;7.18;;;4.10;99.90;;;;;;5020287;28;20120;-70
2022/04/04 01:43:56;;;;;;;9.43;7.22;;;4.10;99.90;;;;;;5022591;28;20060;-69
2022/04/04 01:46:24;;;;;;;9.52;7.13;;;4.10;99.90;;;;;;5020203;28;20099;-69
2022/04/04 01:48:51;;;;;;;12.98;7.30;;;4.10;99.90;;;;;;5020825;28;20045;-69
2022/04/04 01:51:17;;;;;;;10.68;7.32;;;4.20;99.90;;;;;;5020942;28;20073;-70
2022/04/04 01:53:43;;;;;;;12.88;7.82;;;4.20;99.90;;;;;;5019637;28;20056;-70
2022/04/04 01:56:08;;;;;;;10.75;6.95;;;4.20;99.90;;;;;;5018347;28;20038;-69
2022/04/04 01:58:34;;;;;;;15.93;7.43;;;4.20;99.90;;;;;;5021608;28;20046;-69
2022/04/04 02:01:01;;;;;;;9.57;7.60;;;4.20;99.90;;;;;;5016489;28;20033;-70
2022/04/04 02:03:31;;;;;;;10.70;7.47;;;4.20;99.90;;;;;;5020020;28;21004;-70
2022/04/04 02:05:58;;;;;;;9.77;7.13;;;4.20;99.90;;;;;;5018611;28;20057;-70
2022/04/04 02:08:24;;;;;;;13.27;7.45;;;4.20;99.90;;;;;;5021599;28;20037;-70
2022/04/04 02:10:50;;;;;;;10.00;7.30;;;4.10;99.90;;;;;;5019576;28;20423;-70
2022/04/04 02:13:15;;;;;;;9.35;7.10;;;4.10;99.90;;;;;;5018422;28;20410;-69
2022/04/04 02:15:41;;;;;;;12.98;7.95;;;4.20;99.90;;;;;;5017983;28;20049;-69
2022/04/04 02:18:07;;;;;;;9.32;7.20;;;4.10;99.90;;;;;;5017912;28;20196;-69
2022/04/04 02:20:33;;;;;;;12.00;8.13;;;4.10;99.90;;;;;;5021212;28;20037;-70
2022/04/04 02:23:00;;;;;;;8.55;7.15;;;4.10;99.90;;;;;;5022726;28;20042;-70
2022/04/04 02:25:26;;;;;;;11.32;7.22;;;4.10;99.90;;;;;;5015162;28;20117;-70
2022/04/04 02:27:52;;;;;;;14.57;6.93;;;4.20;99.90;;;;;;5015804;28;20128;-70
2022/04/04 02:30:17;;;;;;;13.05;7.13;;;4.20;99.90;;;;;;5021211;28;20091;-70
2022/04/04 02:32:43;;;;;;;10.73;7.38;;;4.20;99.90;;;;;;5020864;28;20049;-70
2022/04/04 02:35:09;;;;;;;19.05;8.18;;;4.20;99.90;;;;;;5017816;28;20049;-70
2022/04/04 02:37:35;;;;;;;10.57;7.28;;;4.20;99.90;;;;;;5017097;28;20060;-70
2022/04/04 02:40:00;;;;;;;12.05;7.35;;;4.20;99.90;;;;;;5018560;28;20179;-70
2022/04/04 02:42:26;;;;;;;10.52;7.70;;;4.30;99.90;;;;;;5017765;28;20042;-70
2022/04/04 02:44:54;;;;;;;9.55;8.50;;;4.30;99.90;;;;;;5018964;28;20025;-70
2022/04/04 02:47:20;;;;;;;11.30;8.68;;;4.30;99.90;;;;;;5018059;28;20049;-70
2022/04/04 02:49:45;;;;;;;11.30;8.52;;;4.30;99.90;;;;;;5022207;28;20053;-70
2022/04/04 02:52:12;;;;;;;12.18;9.02;;;4.30;99.90;;;;;;5022720;28;20504;-70
2022/04/04 02:54:37;;;;;;;13.75;8.50;;;4.40;99.90;;;;;;5011093;28;20045;-70
2022/04/04 02:57:03;;;;;;;13.93;8.55;;;4.30;99.90;;;;;;5020010;28;20068;-70
2022/04/04 02:59:29;;;;;;;14.32;8.05;;;4.30;99.90;;;;;;5025462;28;20673;-70
2022/04/04 03:01:54;;;;;;;16.70;8.82;;;4.40;99.90;;;;;;5020500;28;20041;-70
2022/04/04 03:04:20;;;;;;;11.55;9.48;;;4.40;99.90;;;;;;5005354;28;20077;-70
2022/04/04 03:06:46;;;;;;;11.77;8.30;;;4.50;99.90;;;;;;5024793;28;20388;-71
2022/04/04 03:09:11;;;;;;;13.73;8.80;;;4.60;99.90;;;;;;5023217;28;20048;-70
2022/04/04 03:11:37;;;;;;;14.18;7.57;;;4.70;99.90;;;;;;5020935;28;20091;-70
2022/04/04 03:14:04;;;;;;;14.65;9.85;;;4.70;99.90;;;;;;5021942;28;20083;-73
2022/04/04 03:16:29;;;;;;;16.45;10.10;;;4.70;99.90;;;;;;5021282;28;20052;-73
2022/04/04 03:18:55;;;;;;;18.67;9.57;;;4.80;99.90;;;;;;5024553;28;20037;-74
2022/04/04 03:21:22;;;;;;;12.05;9.73;;;4.80;99.90;;;;;;5023131;28;20036;-74
2022/04/04 03:23:48;;;;;;;18.23;9.30;;;4.80;99.90;;;;;;5020819;28;20763;-73
2022/04/04 03:26:13;;;;;;;13.30;9.40;;;4.80;99.90;;;;;;5024749;28;20029;-74
2022/04/04 03:28:40;;;;;;;13.77;8.90;;;4.90;99.90;;;;;;5024844;28;20039;-73
2022/04/04 03:31:06;;;;;;;13.88;9.32;;;4.80;99.90;;;;;;5023647;28;20034;-75
2022/04/04 03:33:36;;;;;;;18.10;9.10;;;4.90;99.90;;;;;;5024010;28;20068;-75
2022/04/04 03:36:02;;;;;;;15.05;10.00;;;4.90;99.90;;;;;;5022047;28;20033;-74
2022/04/04 03:38:28;;;;;;;13.80;8.85;;;4.90;99.90;;;;;;5021242;28;20102;-75
2022/04/04 03:40:55;;;;;;;12.90;9.23;;;4.90;99.90;;;;;;5022275;28;20042;-74
2022/04/04 03:43:21;;;;;;;14.40;9.45;;;5.00;99.90;;;;;;5020215;28;20045;-75
2022/04/04 03:45:46;;;;;;;19.05;9.57;;;5.00;99.90;;;;;;5020926;28;20042;-74
2022/04/04 03:48:13;;;;;;;15.50;9.90;;;5.00;99.90;;;;;;5024195;28;20760;-74
2022/04/04 03:50:39;;;;;;;12.38;9.63;;;5.10;99.90;;;;;;5023795;28;20037;-74
2022/04/04 03:53:05;;;;;;;16.70;8.70;;;5.10;99.90;;;;;;5019995;28;20052;-75
2022/04/04 03:55:33;;;;;;;16.00;9.50;;;5.10;99.90;;;;;;5023277;28;20033;-74
2022/04/04 03:58:00;;;;;;;17.88;9.18;;;5.10;99.90;;;;;;5022127;28;20037;-75
2022/04/04 04:00:27;;;;;;;12.40;8.50;;;5.20;99.90;;;;;;5023019;28;20033;-74
2022/04/04 04:02:53;;;;;;;13.50;8.52;;;5.20;99.90;;;;;;5020935;28;20380;-74
2022/04/04 04:05:19;;;;;;;14.15;9.30;;;5.20;99.90;;;;;;5022142;28;20041;-74
2022/04/04 04:07:45;;;;;;;14.50;8.63;;;5.20;99.90;;;;;;5019999;28;20052;-75
2022/04/04 04:10:11;;;;;;;9.50;7.07;;;5.30;99.90;;;;;;5022991;28;20699;-75
2022/04/04 04:12:39;;;;;;;12.43;9.32;;;5.30;99.90;;;;;;5018910;28;20499;-74
2022/04/04 04:15:07;;;;;;;12.90;8.27;;;5.30;99.90;;;;;;5021553;28;20081;-73
2022/04/04 04:17:33;;;;;;;11.95;9.05;;;5.20;99.90;;;;;;5019658;28;20045;-74
2022/04/04 04:22:43;;;;;;;19.77;10.35;;;5.30;99.90;;;;;;5019889;28;20050;-70
2022/04/04 04:25:09;;;;;;;10.15;8.80;;;5.30;99.90;;;;;;5006442;28;20038;-70
2022/04/04 04:27:35;;;;;;;18.23;8.60;;;5.40;99.90;;;;;;5020598;28;20400;-72
2022/04/04 04:30:03;;;;;;;11.90;7.85;;;5.40;99.90;;;;;;5020368;28;20049;-72
2022/04/04 04:32:29;;;;;;;16.75;9.38;;;5.40;99.90;;;;;;5022210;28;20067;-72
2022/04/04 04:34:55;;;;;;;13.10;8.77;;;5.50;99.90;;;;;;5022523;28;20052;-71
2022/04/04 04:37:21;;;;;;;14.57;9.57;;;5.40;99.90;;;;;;5019165;28;20073;-69
2022/04/04 04:39:48;;;;;;;11.80;8.73;;;5.40;99.90;;;;;;5019882;28;20072;-70
2022/04/04 04:42:14;;;;;;;12.73;8.27;;;5.40;99.90;;;;;;5020392;28;21739;-70
2022/04/04 04:44:39;;;;;;;15.27;8.43;;;5.40;99.90;;;;;;5022267;28;20025;-72
2022/04/04 04:47:07;;;;;;;9.20;8.18;;;5.40;99.90;;;;;;5021739;28;20068;-70
2022/04/04 04:49:34;;;;;;;14.32;8.50;;;5.40;99.90;;;;;;5021683;28;20137;-70
2022/04/04 04:52:00;;;;;;;12.50;8.93;;;5.50;99.90;;;;;;5019506;28;20052;-71
2022/04/04 04:54:26;;;;;;;12.30;8.98;;;5.40;99.90;;;;;;5019962;28;20049;-71
2022/04/04 04:56:52;;;;;;;16.60;9.23;;;5.40;99.90;;;;;;5020443;28;20045;-70
2022/04/04 04:59:17;;;;;;;13.73;8.75;;;5.40;99.90;;;;;;5019824;28;20052;-71
2022/04/04 05:01:43;;;;;;;13.35;9.52;;;5.40;99.90;;;;;;5021184;28;20059;-70
2022/04/04 05:04:08;;;;;;;15.70;9.02;;;5.40;99.90;;;;;;5019912;28;20121;-70
2022/04/04 05:06:34;;;;;;;15.05;10.05;;;5.40;99.90;;;;;;5019448;28;20052;-69
2022/04/04 05:09:00;;;;;;;14.35;10.05;;;5.40;99.90;;;;;;5019096;28;20056;-70
2022/04/04 05:11:29;;;;;;;15.70;10.20;;;5.40;99.90;;;;;;5021106;28;20048;-70
2022/04/04 05:13:54;;;;;;;17.25;9.00;;;5.40;99.90;;;;;;5021882;28;20041;-70
2022/04/04 05:16:20;;;;;;;12.27;9.50;;;5.40;99.90;;;;;;5022062;28;20071;-70
2022/04/04 05:18:46;;;;;;;14.77;10.00;;;5.40;99.90;;;;;;5020604;28;20040;-70
2022/04/04 05:21:12;;;;;;;14.23;10.20;;;5.40;99.90;;;;;;5021983;28;20160;-69
2022/04/04 05:23:38;;;;;;;18.85;9.90;;;5.40;99.90;;;;;;5002170;28;20475;-69
2022/04/04 05:26:05;;;;;;;12.07;9.15;;;5.40;99.90;;;;;;5020708;28;20067;-70
2022/04/04 05:28:31;;;;;;;16.33;9.70;;;5.40;99.90;;;;;;5019285;28;20060;-69
2022/04/04 05:30:58;;;;;;;13.80;9.23;;;5.40;99.90;;;;;;5021408;28;20045;-69
2022/04/04 05:33:24;;;;;;;15.73;8.95;;;5.40;99.90;;;;;;5020111;28;20080;-69
2022/04/04 05:35:50;;;;;;;15.40;9.65;;;5.40;99.90;;;;;;5019300;28;20056;-69
2022/04/04 05:38:16;;;;;;;13.80;8.93;;;5.40;99.90;;;;;;5018548;28;20910;-69
2022/04/04 05:40:42;;;;;;;13.27;9.15;;;5.40;99.90;;;;;;5017724;28;20045;-69
2022/04/04 05:43:08;;;;;;;12.55;9.30;;;5.40;99.90;;;;;;5018118;28;20045;-69
2022/04/04 05:45:39;;;;;;;12.55;8.95;;;5.40;99.90;;;;;;5018732;28;20037;-69
2022/04/04 05:48:06;;;;;;;16.00;9.95;;;5.30;99.90;;;;;;5015273;28;20048;-68
2022/04/04 05:50:33;;;;;;;15.52;9.27;;;5.40;99.90;;;;;;5019366;28;20049;-69
2022/04/04 05:52:59;;;;;;;21.80;9.60;;;5.50;99.90;;;;;;5019089;28;21781;-69
2022/04/04 05:55:25;;;;;;;10.43;9.20;;;5.40;99.90;;;;;;5016743;28;20040;-66
2022/04/04 05:57:50;;;;;;;15.40;8.25;;;5.40;99.90;;;;;;5017197;28;20045;-67
2022/04/04 06:00:17;;;;;;;14.70;9.93;;;5.40;99.90;;;;;;5017835;28;20057;-66
2022/04/04 06:02:45;;;;;;;14.18;10.43;;;5.50;99.90;;;;;;5016687;28;20049;-67
2022/04/04 06:05:11;;;;;;;14.90;9.45;;;5.50;99.90;;;;;;5003234;28;20068;-67
2022/04/04 06:07:38;;;;;;;13.93;9.10;;;5.40;99.90;;;;;;5018439;28;21126;-68
2022/04/04 06:10:06;;;;;;;14.75;9.95;;;5.50;99.90;;;;;;5016973;28;20087;-68
2022/04/04 06:12:34;;;;;;;13.07;8.98;;;5.40;99.90;;;;;;5012877;28;20045;-70
2022/04/04 06:15:00;;;;;;;13.98;8.40;;;5.50;99.90;;;;;;5014983;28;20643;-68
2022/04/04 06:17:27;;;;;;;15.80;8.52;;;5.40;99.90;;;;;;5016148;28;20199;-69
2022/04/04 06:19:52;;;;;;;10.65;7.80;;;5.50;99.90;;;;;;5017874;28;20033;-72
2022/04/04 06:22:18;;;;;;;16.45;8.07;;;5.50;99.90;;;;;;5013593;28;20072;-68
2022/04/04 06:24:44;;;;;;;14.48;8.68;;;5.50;99.90;;;;;;5017559;28;20550;-68
2022/04/04 06:27:09;;;;;;;11.55;7.63;;;5.40;99.90;;;;;;5018441;28;20029;-72
2022/04/04 06:29:35;;;;;;;16.00;9.13;;;5.50;99.90;;;;;;5019032;28;20115;-69
2022/04/04 06:32:01;;;;;;;12.30;8.77;;;5.50;99.90;;;;;;5018351;28;20045;-72
2022/04/04 06:34:27;;;;;;;13.20;8.70;;;5.40;99.90;;;;;;5019626;28;20289;-68
2022/04/04 06:36:53;;;;;;;12.18;7.97;;;5.50;99.90;;;;;;5019479;28;20504;-73
2022/04/04 06:39:19;;;;;;;18.65;8.55;;;5.50;99.90;;;;;;5021898;28;20121;-70
2022/04/04 06:41:45;;;;;;;10.65;7.38;;;5.40;99.90;;;;;;5016810;28;20195;-67
2022/04/04 06:44:12;;;;;;;12.20;9.90;;;5.50;99.90;;;;;;5020206;28;21076;-69
2022/04/04 06:46:38;;;;;;;11.65;8.63;;;5.50;99.90;;;;;;5017491;28;20050;-68
2022/04/04 06:49:08;;;;;;;14.27;9.52;;;5.40;99.90;;;;;;5016859;28;20071;-67
2022/04/04 06:51:34;;;;;;;12.45;8.68;;;5.40;99.90;;;;;;5016270;28;20084;-69
2022/04/04 06:54:01;;;;;;;11.00;7.85;;;5.40;99.90;;;;;;5016438;28;20167;-67
2022/04/04 06:56:26;;;;;;;12.35;8.32;;;5.40;99.90;;;;;;5017455;28;20088;-68
2022/04/04 06:58:52;;;;;;;14.23;8.60;;;5.30;99.90;;;;;;5016836;28;20179;-67
2022/04/04 07:01:19;;;;;;;14.43;9.32;;;5.30;99.90;;;;;;5017669;28;20046;-68
2022/04/04 07:03:44;;;;;;;14.13;8.80;;;5.40;99.90;;;;;;5021265;28;20113;-67
2022/04/04 07:06:11;;;;;;;12.65;8.32;;;5.40;99.90;;;;;;5016836;28;20041;-67
2022/04/04 07:08:36;;;;;;;13.88;8.90;;;5.40;99.90;;;;;;5018308;28;20033;-67
2022/04/04 07:11:03;;;;;;;15.48;10.52;;;5.50;99.90;;;;;;5017990;28;20060;-66
2022/04/04 07:13:31;;;;;;;12.85;8.40;;;5.50;99.90;;;;;;5017862;28;20045;-67
2022/04/04 07:15:57;;;;;;;13.77;9.68;;;5.50;99.90;;;;;;5017860;28;20116;-67
2022/04/04 07:18:23;;;;;;;10.35;7.00;;;5.40;99.90;;;;;;5015420;28;20111;-68
2022/04/04 07:20:49;;;;;;;13.93;8.80;;;5.40;99.90;;;;;;5017457;28;20080;-66
2022/04/04 07:23:14;;;;;;;13.85;9.13;;;5.40;99.90;;;;;;5019056;28;20025;-67
2022/04/04 07:25:40;;;;;;;15.43;9.70;;;5.50;99.90;;;;;;5015265;28;22102;-68
2022/04/04 07:28:08;;;;;;;15.10;9.63;;;5.40;99.90;;;;;;5017223;28;20055;-67
2022/04/04 07:30:34;;;;;;;13.93;9.85;;;5.40;99.90;;;;;;5017567;28;20052;-67
2022/04/04 07:33:03;;;;;;;16.45;9.77;;;5.40;99.90;;;;;;5017220;28;20766;-69
2022/04/04 07:35:29;;;;;;;16.83;11.48;;;5.50;99.90;;;;;;5015678;28;20365;-67
2022/04/04 07:37:55;;;;;;;13.65;10.50;;;5.50;99.90;;;;;;5019436;28;20044;-67
2022/04/04 07:40:21;;;;;;;15.63;10.60;;;5.50;99.90;;;;;;5017215;28;20033;-69
2022/04/04 07:42:47;;;;;;;12.93;9.98;;;5.50;99.90;;;;;;5015546;28;20049;-67
2022/04/04 07:45:15;;;;;;;15.25;11.60;;;5.50;99.90;;;;;;4999533;28;20046;-67
2022/04/04 07:47:43;;;;;;;16.33;11.23;;;5.50;99.90;;;;;;5018069;28;20052;-68
2022/04/04 07:50:10;;;;;;;18.50;11.32;;;5.40;99.90;;;;;;5017729;28;20115;-68
2022/04/04 07:52:36;;;;;;;14.65;10.38;;;5.50;99.90;;;;;;4999960;28;20050;-69
2022/04/04 07:55:02;;;;;;;15.27;10.98;;;5.50;99.90;;;;;;5016675;28;20498;-68
2022/04/04 07:57:28;;;;;;;16.83;11.45;;;5.50;99.90;;;;;;5015228;28;20037;-69
2022/04/04 07:59:53;;;;;;;11.07;9.75;;;5.60;99.90;;;;;;5016339;28;20526;-69
2022/04/04 08:02:20;;;;;;;15.65;11.27;;;5.60;99.90;;;;;;5019413;28;20037;-68
2022/04/04 08:04:46;;;;;;;14.05;10.13;;;5.60;99.90;;;;;;5019331;28;20041;-69
2022/04/04 08:07:13;;;;;;;11.90;9.57;;;5.60;99.90;;;;;;5015422;28;20053;-69
2022/04/04 08:09:38;;;;;;;12.27;9.68;;;5.60;99.90;;;;;;5017255;28;20053;-69
2022/04/04 08:12:04;;;;;;;12.98;8.57;;;5.70;99.90;;;;;;5016174;28;20104;-69
2022/04/04 08:14:30;;;;;;;13.90;8.95;;;5.70;99.90;;;;;;5017646;28;20137;-67
2022/04/04 08:16:56;;;;;;;10.93;8.73;;;5.70;99.90;;;;;;5018187;28;20037;-69
2022/04/04 08:19:22;;;;;;;12.32;7.80;;;5.70;99.90;;;;;;5014522;28;20041;-69
2022/04/04 08:21:47;;;;;;;16.50;9.15;;;5.70;99.90;;;;;;5015553;28;20044;-69
2022/04/04 08:24:13;;;;;;;10.77;8.30;;;5.80;99.90;;;;;;5012361;28;20045;-69
2022/04/04 08:26:39;;;;;;;14.07;9.65;;;5.80;99.90;;;;;;5016452;28;20037;-69
2022/04/04 08:29:08;;;;;;;9.07;7.35;;;5.70;99.90;;;;;;5017008;28;20136;-69
2022/04/04 08:31:34;;;;;;;11.40;8.02;;;5.80;99.90;;;;;;5016460;28;20049;-68
2022/04/04 08:34:00;;;;;;;14.40;7.53;;;5.80;99.90;;;;;;5018545;28;20096;-68
2022/04/04 08:36:25;;;;;;;8.07;7.22;;;5.80;99.90;;;;;;5015227;28;20443;-68
2022/04/04 08:38:51;;;;;;;10.55;7.47;;;5.90;99.90;;;;;;5018175;28;20121;-69
2022/04/04 08:41:17;;;;;;;12.38;8.70;;;5.80;99.90;;;;;;5017371;28;21715;-69
2022/04/04 08:43:43;;;;;;;9.63;7.07;;;5.80;99.90;;;;;;5015782;28;20700;-68
2022/04/04 08:46:09;;;;;;;7.35;6.32;;;5.80;99.90;;;;;;5013584;28;20061;-68
2022/04/04 08:48:38;;;;;;;9.27;5.70;;;5.80;99.90;;;;;;5016055;28;20059;-69
2022/04/04 08:51:07;;;;;;;10.05;3.78;;;5.90;99.90;;;;;;5015100;28;20064;-69
2022/04/04 08:53:35;;;;;;;8.38;4.25;;;6.00;99.90;;;;;;5016941;28;20057;-68
2022/04/04 08:56:04;;;;;;;9.10;4.18;;;5.90;99.90;;;;;;5013313;28;20136;-68
2022/04/04 08:58:31;;;;;;;5.47;3.55;;;6.10;99.90;;;;;;5018116;28;20098;-69
2022/04/04 09:00:57;;;;;;;4.80;3.70;;;6.10;99.90;;;;;;5015596;28;20188;-69
2022/04/04 09:03:29;;;;;;;4.35;2.67;;;6.10;99.90;;;;;;5016249;28;20050;-70
2022/04/04 09:05:57;;;;;;;5.00;2.58;;;6.10;99.90;;;;;;5016343;28;20041;-68
2022/04/04 09:08:23;;;;;;;4.18;2.20;;;6.20;99.90;;;;;;5015944;28;21645;-69
2022/04/04 09:10:56;;;;;;;4.82;2.03;;;6.10;99.90;;;;;;5016120;28;20144;-69
2022/04/04 09:13:25;;;;;;;5.80;1.95;;;6.10;99.90;;;;;;5010946;28;20045;-70
2022/04/04 09:16:04;;;;;;;4.97;2.42;;;6.20;99.90;;;;;;5012902;28;20056;-69
2022/04/04 09:18:45;;;;;;;10.45;1.48;;;6.20;99.90;;;;;;5013047;28;20041;-70
2022/04/04 09:21:29;;;;;;;3.72;1.80;;;6.20;99.90;;;;;;5016346;28;20079;-70
2022/04/04 09:24:01;;;;;;;5.38;2.28;;;6.20;99.90;;;;;;4998939;28;20119;-68
2022/04/04 09:26:33;;;;;;;6.10;1.58;;;6.20;99.90;;;;;;5015840;28;20034;-69
2022/04/04 09:29:01;;;;;;;7.90;2.00;;;6.20;99.90;;;;;;5028480;28;20965;-70
2022/04/04 09:31:27;;;;;;;5.18;1.88;;;6.30;99.90;;;;;;5014883;28;20048;-70
2022/04/04 09:33:57;;;;;;;3.38;1.50;;;6.30;99.90;;;;;;5011481;28;20148;-78
2022/04/04 09:36:24;;;;;;;5.80;1.77;;;6.30;99.90;;;;;;5013878;28;20061;-67
2022/04/04 09:39:08;;;;;;;2.92;1.80;;;6.30;99.90;;;;;;5014915;28;20034;-67
2022/04/04 09:41:34;;;;;;;4.78;1.83;;;6.40;99.90;;;;;;5011128;28;20165;-66
2022/04/04 09:44:02;;;;;;;3.40;1.73;;;6.40;99.90;;;;;;5015886;28;20034;-66
2022/04/04 09:46:33;;;;;;;4.35;1.77;;;6.40;99.90;;;;;;5015534;28;20685;-67
2022/04/04 09:49:15;;;;;;;4.07;1.73;;;6.50;99.90;;;;;;5016727;28;20049;-67
2022/04/04 09:51:49;;;;;;;7.82;1.55;;;6.50;99.90;;;;;;5015151;28;20034;-66
2022/04/04 09:54:18;;;;;;;3.25;1.08;;;6.50;99.90;;;;;;5016593;28;20088;-67
2022/04/04 09:56:47;;;;;;;2.35;1.33;;;6.50;99.90;;;;;;5013357;28;20049;-67
2022/04/04 09:59:15;;;;;;;5.50;1.48;;;6.50;99.90;;;;;;5014873;28;20110;-67
2022/04/04 10:01:45;;;;;;;4.70;1.23;;;6.50;99.90;;;;;;5016072;28;20038;-67
2022/04/04 10:04:12;;;;;;;2.25;1.48;;;6.50;99.90;;;;;;5014907;28;20093;-67
2022/04/04 10:06:40;;;;;;;3.65;1.70;;;6.50;99.90;;;;;;5016015;28;20030;-68
2022/04/04 10:09:06;;;;;;;4.03;1.70;;;6.60;99.90;;;;;;5013273;28;20045;-67
2022/04/04 10:11:34;;;;;;;3.80;2.00;;;6.50;99.90;;;;;;5016071;28;20048;-67
2022/04/04 10:14:01;;;;;;;3.10;1.50;;;6.50;99.90;;;;;;5014690;28;20046;-67
2022/04/04 10:16:27;;;;;;;4.45;1.70;;;6.50;99.90;;;;;;5013543;28;20056;-67
2022/04/04 10:18:54;;;;;;;10.23;2.13;;;6.50;99.90;;;;;;5013665;28;20041;-68
2022/04/04 10:21:21;;;;;;;4.78;2.10;;;6.50;99.90;;;;;;5009339;28;20041;-68
2022/04/04 10:23:53;;;;;;;3.95;1.85;;;6.60;99.90;;;;;;5008061;28;20083;-67
2022/04/04 10:26:21;;;;;;;4.30;1.83;;;6.60;99.90;;;;;;5013937;28;20140;-67
2022/04/04 10:28:48;;;;;;;6.25;2.13;;;6.60;99.90;;;;;;5014531;28;20041;-67
2022/04/04 10:31:19;;;;;;;3.53;1.73;;;6.70;99.90;;;;;;5014869;28;20049;-67
2022/04/04 10:33:49;;;;;;;3.15;1.80;;;6.70;99.90;;;;;;5009833;28;20128;-67
2022/04/04 10:36:25;;;;;;;3.47;1.90;;;6.70;99.90;;;;;;5026905;28;20053;-67
2022/04/04 10:38:54;;;;;;;5.88;2.00;;;6.60;99.90;;;;;;5015287;28;20041;-66
2022/04/04 10:41:30;;;;;;;4.43;1.90;;;6.70;99.90;;;;;;5013913;28;20102;-67
2022/04/04 10:43:56;;;;;;;2.80;1.40;;;6.60;99.90;;;;;;5013011;28;20041;-67
2022/04/04 10:46:24;;;;;;;5.05;1.80;;;6.70;99.90;;;;;;5013791;28;20041;-67
2022/04/04 10:49:02;;;;;;;4.25;1.40;;;6.80;99.90;;;;;;5013937;28;20088;-66
2022/04/04 10:51:34;;;;;;;3.30;1.65;;;6.70;99.90;;;;;;5013615;28;20053;-67
2022/04/04 10:54:09;;;;;;;3.80;1.42;;;6.70;99.90;;;;;;5013474;28;20112;-67
2022/04/04 10:56:44;;;;;;;4.47;1.15;;;6.80;99.90;;;;;;5013202;28;20507;-67
2022/04/04 10:59:16;;;;;;;3.22;1.70;;;6.80;99.90;;;;;;5027964;28;20057;-67
2022/04/04 11:01:48;;;;;;;4.55;1.33;;;6.80;99.90;;;;;;5014035;28;20110;-67
2022/04/04 11:04:23;;;;;;;3.08;1.50;;;6.90;99.90;;;;;;5011957;28;20045;-67
2022/04/04 11:07:49;;;;;;;5.20;1.50;;;6.90;99.90;;;;;;5028913;28;20080;-67
2022/04/04 11:09:47;;;;;;;2.85;0.93;;;6.90;99.90;;;;;;4997005;28;20048;-67
2022/04/04 11:12:14;;;;;;;3.42;1.75;;;6.90;99.90;;;;;;5015060;28;20045;-67
2022/04/04 11:14:39;;;;;;;2.65;1.13;;;7.00;99.90;;;;;;5018092;28;20056;-66
2022/04/04 11:17:23;;;;;;;2.72;1.40;;;7.10;99.90;;;;;;5013785;28;20049;-67
2022/04/04 11:20:02;;;;;;;4.22;1.10;;;7.10;99.90;;;;;;5018380;28;20723;-67
2022/04/04 11:22:37;;;;;;;2.20;1.27;;;7.10;99.90;;;;;;5017165;28;20045;-66
2022/04/04 11:25:12;;;;;;;2.97;0.95;;;7.20;99.90;;;;;;5018224;28;20942;-67
2022/04/04 11:27:39;;;;;;;3.60;1.38;;;7.20;99.90;;;;;;5015090;28;20119;-67
2022/04/04 11:30:10;;;;;;;4.88;1.77;;;7.20;99.90;;;;;;5017096;28;20049;-67
2022/04/04 11:32:40;;;;;;;4.55;0.80;;;7.20;99.90;;;;;;5014450;28;20045;-67
2022/04/04 11:35:14;;;;;;;2.33;0.70;;;7.30;99.90;;;;;;5017793;28;20041;-67
2022/04/04 11:37:48;;;;;;;2.53;1.08;;;7.30;99.90;;;;;;5015974;28;20056;-67
2022/04/04 11:40:18;;;;;;;8.82;1.20;;;7.40;99.90;;;;;;5019873;28;20052;-67
2022/04/04 11:42:51;;;;;;;1.88;0.77;;;7.30;99.90;;;;;;5016846;28;20056;-67
2022/04/04 11:45:27;;;;;;;1.02;0.60;;;7.30;99.90;;;;;;5015824;28;20069;-67
2022/04/04 11:48:01;;;;;;;2.22;0.80;;;7.40;99.90;;;;;;5017494;28;20129;-67
2022/04/04 11:50:30;;;;;;;1.90;0.60;;;7.50;99.90;;;;;;5018319;28;20045;-67
2022/04/04 11:53:00;;;;;;;1.85;0.50;;;7.50;99.90;;;;;;5019550;28;21440;-67
2022/04/04 11:55:27;;;;;;;1.88;0.50;;;7.60;99.90;;;;;;5019831;28;20033;-67
2022/04/04 11:57:59;;;;;;;1.15;0.38;;;7.60;99.90;;;;;;5018098;28;20053;-67
2022/04/04 12:00:32;;;;;;;1.48;0.50;;;7.70;99.90;;;;;;5019316;28;20038;-67
2022/04/04 12:03:10;;;;;;;1.45;0.50;;;7.70;99.90;;;;;;5022090;28;20109;-67
2022/04/04 12:05:43;;;;;;;3.65;0.95;;;7.60;99.90;;;;;;5018500;28;20041;-68
2022/04/04 12:08:10;;;;;;;1.65;0.60;;;7.60;99.90;;;;;;5016160;28;20128;-67
2022/04/04 12:10:37;;;;;;;1.40;0.30;;;7.60;99.90;;;;;;5017685;28;20041;-68
2022/04/04 12:13:06;;;;;;;1.45;0.40;;;7.70;99.90;;;;;;5018370;28;20045;-67
2022/04/04 12:15:43;;;;;;;1.25;0.40;;;7.70;99.90;;;;;;5017851;28;20041;-67
2022/04/04 12:18:10;;;;;;;1.58;0.60;;;7.80;99.90;;;;;;5018677;28;20080;-67
2022/04/04 12:20:39;;;;;;;1.15;0.75;;;7.80;99.90;;;;;;5017137;28;20038;-67
2022/04/04 12:26:00;;;;;;;0.93;0.30;;;7.80;99.90;;;;;;5017776;28;20041;-68
2022/04/04 12:28:40;;;;;;;1.58;0.45;;;7.90;99.90;;;;;;5020222;28;20103;-67
2022/04/04 12:31:19;;;;;;;1.05;0.40;;;7.90;99.90;;;;;;5017312;28;20053;-67
2022/04/04 12:33:52;;;;;;;1.25;0.40;;;7.90;99.90;;;;;;5019866;28;20126;-67
2022/04/04 12:36:32;;;;;;;1.83;0.50;;;7.90;99.90;;;;;;5017609;28;20053;-68
2022/04/04 12:39:01;;;;;;;1.58;0.35;;;7.90;99.90;;;;;;5018383;28;20123;-67
2022/04/04 12:41:27;;;;;;;1.33;0.50;;;7.90;99.90;;;;;;5003027;28;20045;-66
2022/04/04 12:44:01;;;;;;;0.73;0.30;;;8.00;99.90;;;;;;5018530;28;20045;-67
2022/04/04 12:46:29;;;;;;;2.42;0.55;;;8.00;99.90;;;;;;5018638;28;20138;-67
2022/04/04 12:49:10;;;;;;;1.02;0.82;;;8.00;99.90;;;;;;5017450;28;20579;-67
2022/04/04 12:51:36;;;;;;;2.10;0.30;;;8.10;99.90;;;;;;5017685;28;20041;-68
2022/04/04 12:54:02;;;;;;;0.52;0.28;;;8.10;99.90;;;;;;5017911;28;20044;-67
2022/04/04 12:56:31;;;;;;;1.17;0.32;;;8.10;99.90;;;;;;5018314;28;20519;-67
2022/04/04 12:59:05;;;;;;;0.52;0.30;;;8.10;99.90;;;;;;5018755;28;20116;-68